Time;durP1;ratioP1;P1;durP2;ratioP2;P2;SDS_P1;SDS_P2;PMS_P1;PMS_P2;Temp;Humidity;BMP_temperature;BMP_pressure;BME280_temperature;BME280_humidity;BME280_pressure;Samples;Min_cycle;Max_cycle;Signal;HPM_P1;HPM_P2
2024/04/25 04:00:52;;;;;;;1.83;1.60;;;4.80;97.30;;;;;;6226244;21;20681;-90
2024/04/25 04:03:17;;;;;;;5.47;3.17;;;4.80;97.30;;;;;;5309486;26;20471;-89
2024/04/25 04:05:43;;;;;;;3.23;2.23;;;4.90;97.30;;;;;;5329940;26;20332;-92
2024/04/25 04:08:08;;;;;;;1.30;1.20;;;4.80;97.30;;;;;;5288959;26;20831;-90
2024/04/25 04:10:34;;;;;;;1.33;1.23;;;4.80;97.30;;;;;;5309289;26;20270;-92
2024/04/25 04:12:59;;;;;;;3.00;1.47;;;4.80;97.30;;;;;;5233703;27;20259;-91
2024/04/25 04:15:25;;;;;;;1.60;1.50;;;4.80;97.30;;;;;;5275015;27;20228;-89
2024/04/25 04:17:50;;;;;;;1.33;1.33;;;4.80;97.30;;;;;;5248808;27;20315;-90
2024/04/25 04:20:16;;;;;;;1.33;1.20;;;4.80;97.30;;;;;;5311461;26;20579;-92
2024/04/25 04:22:41;;;;;;;3.37;2.30;;;4.80;97.30;;;;;;5302450;26;20810;-90
2024/04/25 04:25:09;;;;;;;1.20;1.10;;;4.80;97.30;;;;;;5243207;27;20307;-91
2024/04/25 04:27:34;;;;;;;1.60;1.50;;;4.80;97.30;;;;;;5246227;27;20247;-90
2024/04/25 04:30:00;;;;;;;1.40;1.30;;;4.80;97.30;;;;;;5253660;27;20889;-91
2024/04/25 04:32:26;;;;;;;1.10;1.00;;;4.80;97.30;;;;;;5242534;27;20829;-87
2024/04/25 04:34:51;;;;;;;1.17;1.07;;;4.80;97.30;;;;;;5255110;27;20244;-89
2024/04/25 04:37:17;;;;;;;1.00;0.90;;;4.80;97.30;;;;;;5274195;27;20240;-86
2024/04/25 04:39:42;;;;;;;1.00;0.90;;;4.80;97.30;;;;;;5276473;27;20323;-89
2024/04/25 04:42:08;;;;;;;2.77;1.90;;;4.80;97.30;;;;;;5248247;27;20284;-86
2024/04/25 04:44:34;;;;;;;1.87;1.77;;;4.80;97.30;;;;;;5246772;27;20293;-88
2024/04/25 04:46:59;;;;;;;2.90;1.30;;;4.80;97.30;;;;;;5246034;27;20476;-89
2024/04/25 04:49:25;;;;;;;1.43;1.33;;;4.80;97.30;;;;;;5243846;27;20279;-87
2024/04/25 04:51:51;;;;;;;1.13;1.03;;;4.80;97.30;;;;;;5260615;27;20245;-89
2024/04/25 04:54:16;;;;;;;2.10;1.23;;;4.80;97.30;;;;;;5248017;27;20237;-90
2024/04/25 04:56:44;;;;;;;1.23;1.20;;;4.80;97.30;;;;;;5245587;27;20289;-90
2024/04/25 04:59:10;;;;;;;1.53;1.43;;;4.80;97.30;;;;;;5247861;27;20641;-90
2024/04/25 05:01:36;;;;;;;1.23;1.13;;;4.90;97.30;;;;;;5249036;27;20476;-90
2024/04/25 05:04:02;;;;;;;1.10;1.00;;;4.90;97.30;;;;;;5249287;27;20472;-90
2024/04/25 05:06:27;;;;;;;2.00;1.23;;;4.90;97.30;;;;;;5248943;27;20291;-89
2024/04/25 05:08:53;;;;;;;1.53;1.30;;;4.90;97.30;;;;;;5247270;27;20926;-87
2024/04/25 05:11:20;;;;;;;2.50;2.10;;;4.80;97.30;;;;;;5248055;27;20244;-90
2024/04/25 05:13:46;;;;;;;1.37;1.27;;;4.80;97.30;;;;;;5248384;27;20548;-90
2024/04/25 05:16:12;;;;;;;1.13;1.03;;;4.80;97.30;;;;;;5248948;27;20468;-90
2024/04/25 05:18:38;;;;;;;1.17;1.07;;;4.80;97.30;;;;;;5246492;27;20596;-89
2024/04/25 05:21:03;;;;;;;1.67;1.57;;;4.80;97.30;;;;;;5257364;21;20576;-62
2024/04/25 05:23:29;;;;;;;1.13;1.00;;;4.90;97.30;;;;;;5242044;27;20241;-63
2024/04/25 05:25:54;;;;;;;3.47;1.60;;;4.90;97.30;;;;;;5259203;27;20240;-63
2024/04/25 05:28:20;;;;;;;1.30;1.20;;;4.90;97.30;;;;;;5243002;27;20263;-63
2024/04/25 05:30:46;;;;;;;2.13;2.00;;;4.90;97.30;;;;;;5272126;27;20233;-62
2024/04/25 05:33:11;;;;;;;1.90;1.77;;;4.90;97.30;;;;;;5272320;27;20300;-62
2024/04/25 05:35:37;;;;;;;3.20;3.00;;;4.90;97.30;;;;;;5299425;27;20241;-63
2024/04/25 05:38:03;;;;;;;1.20;1.10;;;4.90;97.30;;;;;;5293802;27;20229;-63
2024/04/25 05:40:31;;;;;;;1.20;1.10;;;4.90;97.30;;;;;;5270948;27;20282;-62
2024/04/25 05:42:56;;;;;;;2.30;1.67;;;4.90;97.30;;;;;;5271069;27;20401;-62
2024/04/25 05:45:22;;;;;;;2.53;1.63;;;4.90;97.30;;;;;;5259085;27;21003;-62
2024/04/25 05:47:47;;;;;;;1.97;1.87;;;4.90;97.30;;;;;;5244752;27;20231;-62
2024/04/25 05:50:13;;;;;;;2.80;2.60;;;4.90;97.30;;;;;;5263044;27;20305;-63
2024/04/25 05:52:41;;;;;;;1.23;1.13;;;4.90;97.30;;;;;;5250301;27;20776;-62
2024/04/25 05:55:07;;;;;;;1.80;1.70;;;4.90;97.30;;;;;;5258261;27;20233;-62
2024/04/25 05:57:33;;;;;;;1.87;1.83;;;4.80;97.30;;;;;;5270627;27;20900;-62
2024/04/25 05:59:58;;;;;;;1.93;1.83;;;4.80;97.30;;;;;;5250563;27;20585;-62
2024/04/25 06:02:24;;;;;;;1.00;0.90;;;4.90;97.30;;;;;;5265648;27;20237;-63
2024/04/25 06:04:52;;;;;;;1.07;0.97;;;4.80;97.30;;;;;;5245033;27;20279;-62
2024/04/25 06:07:17;;;;;;;0.90;0.80;;;4.70;97.30;;;;;;5259158;27;20460;-63
2024/04/25 06:09:43;;;;;;;2.90;2.10;;;4.60;97.30;;;;;;5243688;27;20808;-64
2024/04/25 06:12:09;;;;;;;3.27;2.47;;;4.40;97.30;;;;;;5264496;27;20245;-64
2024/04/25 06:14:34;;;;;;;1.07;1.03;;;4.40;97.30;;;;;;5238829;27;20609;-63
2024/04/25 06:17:01;;;;;;;1.70;1.60;;;4.40;97.30;;;;;;5257826;27;20267;-64
2024/04/25 06:19:26;;;;;;;3.27;1.63;;;4.50;97.30;;;;;;5258125;27;20285;-64
2024/04/25 06:21:53;;;;;;;1.67;1.50;;;4.50;97.30;;;;;;5266317;27;20481;-63
2024/04/25 06:24:18;;;;;;;2.50;1.77;;;4.50;97.30;;;;;;5263569;27;20241;-63
2024/04/25 06:26:44;;;;;;;1.47;1.30;;;4.50;97.30;;;;;;5272742;27;20583;-63
2024/04/25 06:29:09;;;;;;;1.73;1.63;;;4.50;97.30;;;;;;5248652;27;20358;-64
2024/04/25 06:31:35;;;;;;;2.43;2.23;;;4.50;97.30;;;;;;5267365;27;20323;-63
2024/04/25 06:34:02;;;;;;;3.50;2.60;;;4.50;97.30;;;;;;5265457;27;20242;-64
2024/04/25 06:36:31;;;;;;;2.83;2.63;;;4.50;97.30;;;;;;5266539;27;20268;-64
2024/04/25 06:38:57;;;;;;;3.43;2.17;;;4.50;97.30;;;;;;5264221;27;20547;-64
2024/04/25 06:41:22;;;;;;;1.00;0.90;;;4.60;97.30;;;;;;5261287;27;20532;-64
2024/04/25 06:43:48;;;;;;;1.20;1.10;;;4.70;97.30;;;;;;5268921;27;20238;-64
2024/04/25 06:46:13;;;;;;;1.97;1.87;;;4.80;97.30;;;;;;5290011;27;20265;-64
2024/04/25 06:48:39;;;;;;;1.67;1.57;;;4.90;97.30;;;;;;5252649;27;20242;-64
2024/04/25 06:51:05;;;;;;;5.87;1.43;;;4.90;97.30;;;;;;5253394;27;20246;-64
2024/04/25 06:53:30;;;;;;;1.30;1.20;;;4.90;97.30;;;;;;5238680;27;20309;-64
2024/04/25 06:55:56;;;;;;;1.67;1.53;;;5.00;97.30;;;;;;5265814;27;20743;-63
2024/04/25 06:58:22;;;;;;;1.40;1.30;;;4.90;97.30;;;;;;5263626;27;20233;-63
2024/04/25 07:00:48;;;;;;;1.00;0.90;;;4.90;97.30;;;;;;5252792;27;20246;-64
2024/04/25 07:03:14;;;;;;;1.23;1.13;;;5.00;97.30;;;;;;5238567;27;20265;-64
2024/04/25 07:05:39;;;;;;;2.30;1.33;;;5.00;97.30;;;;;;5251737;27;20756;-64
2024/04/25 07:08:05;;;;;;;7.40;2.90;;;5.10;97.30;;;;;;5258873;27;20590;-64
2024/04/25 07:10:31;;;;;;;16.53;3.40;;;5.20;97.30;;;;;;5271664;27;20345;-64
2024/04/25 07:12:56;;;;;;;4.20;1.43;;;5.10;97.30;;;;;;5239131;27;20882;-65
2024/04/25 07:15:24;;;;;;;1.30;1.27;;;5.10;97.30;;;;;;5262148;27;20288;-64
2024/04/25 07:17:55;;;;;;;1.90;1.43;;;5.00;97.30;;;;;;5268402;27;20230;-63
2024/04/25 07:20:21;;;;;;;2.43;2.23;;;5.00;97.30;;;;;;5248252;27;20916;-63
2024/04/25 07:22:46;;;;;;;1.83;1.73;;;5.00;97.30;;;;;;5271069;27;20956;-63
2024/04/25 07:25:13;;;;;;;1.10;1.00;;;4.90;97.30;;;;;;5256013;27;20464;-63
2024/04/25 07:27:40;;;;;;;1.53;1.43;;;5.00;97.30;;;;;;5257471;27;20284;-63
2024/04/25 07:30:07;;;;;;;1.73;1.63;;;5.10;97.30;;;;;;5247089;27;20505;-64
2024/04/25 07:32:33;;;;;;;1.63;1.53;;;5.10;97.30;;;;;;5264112;27;20532;-64
2024/04/25 07:34:58;;;;;;;2.57;1.47;;;5.20;97.30;;;;;;5250106;27;20585;-64
2024/04/25 07:37:25;;;;;;;14.63;2.93;;;5.30;97.30;;;;;;5278124;27;20815;-63
2024/04/25 07:39:52;;;;;;;4.87;2.13;;;5.40;97.30;;;;;;5251206;27;20225;-63
2024/04/25 07:42:17;;;;;;;3.80;1.40;;;5.50;97.30;;;;;;5237554;27;20917;-64
2024/04/25 07:44:43;;;;;;;2.63;2.10;;;5.60;97.30;;;;;;5238340;27;20481;-64
2024/04/25 07:47:09;;;;;;;3.03;2.27;;;5.80;97.30;;;;;;5250306;27;20282;-63
2024/04/25 07:49:34;;;;;;;2.80;2.60;;;5.90;97.30;;;;;;5265007;27;20764;-64
2024/04/25 07:52:00;;;;;;;1.67;1.57;;;6.00;97.30;;;;;;5270660;27;20479;-64
2024/04/25 07:54:26;;;;;;;1.20;1.10;;;6.10;97.30;;;;;;5245713;27;20231;-64
2024/04/25 07:56:51;;;;;;;1.20;1.10;;;6.10;97.30;;;;;;5263377;27;21019;-64
2024/04/25 07:59:17;;;;;;;1.37;1.20;;;6.10;97.30;;;;;;5251150;27;20230;-65
2024/04/25 08:01:42;;;;;;;1.73;1.67;;;6.20;97.30;;;;;;5249956;27;20265;-64
2024/04/25 08:04:10;;;;;;;1.53;1.20;;;6.20;97.30;;;;;;5250789;27;20285;-64
2024/04/25 08:06:36;;;;;;;2.17;2.00;;;6.10;97.30;;;;;;5255104;27;20225;-62
2024/04/25 08:09:02;;;;;;;1.17;1.10;;;6.30;97.30;;;;;;5242493;27;20607;-63
2024/04/25 08:11:28;;;;;;;2.47;2.33;;;6.40;97.30;;;;;;5242201;27;20578;-63
2024/04/25 08:13:53;;;;;;;4.27;2.40;;;6.90;97.30;;;;;;5245857;27;20468;-64
2024/04/25 08:16:19;;;;;;;5.83;2.10;;;7.10;97.30;;;;;;5259589;27;20578;-62
2024/04/25 08:18:45;;;;;;;4.90;2.07;;;7.30;97.30;;;;;;5270197;27;20624;-62
2024/04/25 08:21:10;;;;;;;2.77;1.27;;;7.20;97.30;;;;;;5263214;27;20238;-64
2024/04/25 08:23:36;;;;;;;1.93;1.20;;;7.00;97.30;;;;;;5276228;27;20233;-63
2024/04/25 08:26:03;;;;;;;3.50;3.30;;;6.70;97.30;;;;;;5242573;27;20230;-63
2024/04/25 08:28:29;;;;;;;1.10;1.00;;;6.40;97.30;;;;;;5242167;27;20273;-63
2024/04/25 08:30:54;;;;;;;1.83;1.73;;;6.30;97.30;;;;;;5240580;27;20545;-63
2024/04/25 08:33:20;;;;;;;30.33;1.70;;;6.30;97.30;;;;;;5249757;27;20238;-64
2024/04/25 08:35:46;;;;;;;4.27;2.50;;;6.30;97.30;;;;;;5254298;27;20277;-64
2024/04/25 08:38:11;;;;;;;3.30;2.03;;;6.40;97.30;;;;;;5247794;27;20235;-64
2024/04/25 08:40:37;;;;;;;1.93;1.83;;;6.40;97.30;;;;;;5263148;27;20245;-63
2024/04/25 08:43:03;;;;;;;4.93;2.63;;;6.50;97.30;;;;;;5284833;27;20233;-62
2024/04/25 08:45:31;;;;;;;3.07;2.60;;;6.60;97.30;;;;;;5244146;27;20242;-63
2024/04/25 08:47:58;;;;;;;1.43;1.17;;;6.70;97.30;;;;;;5257319;27;20687;-63
2024/04/25 08:50:27;;;;;;;3.50;2.30;;;6.90;97.30;;;;;;5260836;27;20481;-63
2024/04/25 08:52:54;;;;;;;2.80;2.33;;;7.00;97.30;;;;;;5255940;27;20461;-64
2024/04/25 08:55:21;;;;;;;1.20;1.10;;;7.00;97.30;;;;;;5250983;27;20461;-64
2024/04/25 08:57:47;;;;;;;2.33;1.57;;;6.90;97.30;;;;;;5254635;27;20908;-64
2024/04/25 09:00:13;;;;;;;1.73;1.63;;;6.90;97.30;;;;;;5252986;27;20466;-64
2024/04/25 09:02:40;;;;;;;1.00;0.90;;;6.90;97.30;;;;;;5262506;27;20241;-63
2024/04/25 09:05:11;;;;;;;1.63;1.53;;;6.90;97.30;;;;;;5257867;27;20520;-64
2024/04/25 09:07:38;;;;;;;1.47;1.23;;;7.00;97.30;;;;;;5260047;27;20468;-65
2024/04/25 09:10:04;;;;;;;1.67;1.57;;;7.10;97.30;;;;;;5244409;27;20628;-63
2024/04/25 09:12:34;;;;;;;2.23;2.03;;;7.30;97.30;;;;;;5250804;27;21075;-63
2024/04/25 09:15:00;;;;;;;5.60;2.17;;;7.30;97.30;;;;;;5256168;27;20226;-62
2024/04/25 09:17:26;;;;;;;2.07;1.67;;;7.40;97.30;;;;;;5248585;27;20812;-64
2024/04/25 09:19:52;;;;;;;3.93;1.53;;;7.50;97.30;;;;;;5255216;27;20241;-63
2024/04/25 09:22:19;;;;;;;1.87;1.67;;;7.70;97.30;;;;;;5241298;27;20489;-63
2024/04/25 09:24:45;;;;;;;1.20;1.10;;;8.10;97.30;;;;;;5257735;27;20565;-63
2024/04/25 09:27:11;;;;;;;2.20;1.77;;;8.50;97.30;;;;;;5253832;27;20525;-63
2024/04/25 09:29:36;;;;;;;9.53;1.50;;;8.70;97.30;;;;;;5255572;27;20472;-63
2024/04/25 09:32:02;;;;;;;1.53;1.43;;;8.80;97.30;;;;;;5263933;27;20283;-62
2024/04/25 09:34:28;;;;;;;3.83;1.20;;;9.00;97.30;;;;;;5253904;27;20460;-63
2024/04/25 09:36:54;;;;;;;1.03;1.00;;;9.20;97.30;;;;;;5253371;27;20268;-63
2024/04/25 09:39:20;;;;;;;3.47;2.20;;;9.20;97.30;;;;;;5247029;27;20345;-63
2024/04/25 09:41:47;;;;;;;1.60;1.50;;;9.30;97.30;;;;;;5251365;27;21419;-63
2024/04/25 09:44:13;;;;;;;2.80;2.60;;;9.40;97.30;;;;;;5263518;27;20241;-61
2024/04/25 09:46:56;;;;;;;1.67;1.60;;;9.40;97.30;;;;;;5262731;27;20873;-61
2024/04/25 09:49:25;;;;;;;1.60;1.50;;;9.30;97.30;;;;;;5255138;27;20997;-62
2024/04/25 09:52:00;;;;;;;1.73;1.37;;;8.90;96.90;;;;;;5251101;27;20540;-60
2024/04/25 09:54:28;;;;;;;1.57;1.23;;;8.50;97.30;;;;;;5256213;27;20459;-62
2024/04/25 09:57:04;;;;;;;2.60;1.83;;;8.30;97.30;;;;;;5269959;27;20560;-62
2024/04/25 09:59:48;;;;;;;1.00;0.90;;;8.20;97.30;;;;;;5272463;27;20629;-63
2024/04/25 10:02:19;;;;;;;1.80;1.63;;;8.30;97.30;;;;;;5279281;27;20485;-63
2024/04/25 10:04:45;;;;;;;1.33;1.23;;;8.40;97.30;;;;;;5260675;27;20535;-63
2024/04/25 10:07:14;;;;;;;1.50;1.40;;;8.70;97.30;;;;;;5262606;27;20523;-63
2024/04/25 10:09:40;;;;;;;0.90;0.80;;;9.20;97.30;;;;;;5260710;27;20944;-62
2024/04/25 10:12:05;;;;;;;1.83;1.07;;;9.50;92.20;;;;;;5272464;27;20461;-62
2024/04/25 10:14:32;;;;;;;1.63;1.37;;;9.50;91.10;;;;;;5263020;27;20468;-61
2024/04/25 10:17:04;;;;;;;1.50;1.40;;;9.40;89.70;;;;;;5260710;27;20226;-62
2024/04/25 10:19:38;;;;;;;1.20;1.10;;;9.20;90.00;;;;;;5248296;27;20571;-62
2024/04/25 10:22:06;;;;;;;2.00;1.93;;;9.30;91.10;;;;;;5262689;27;20464;-64
2024/04/25 10:24:31;;;;;;;13.53;3.03;;;9.20;90.30;;;;;;5263122;27;20468;-63
2024/04/25 10:27:08;;;;;;;1.27;1.27;;;9.00;90.70;;;;;;5260840;27;20877;-62
2024/04/25 10:29:34;;;;;;;2.30;1.80;;;9.30;91.20;;;;;;5266085;27;20236;-62
2024/04/25 10:31:59;;;;;;;1.00;0.90;;;9.80;91.30;;;;;;5260470;27;20556;-62
2024/04/25 10:34:25;;;;;;;2.93;1.67;;;9.80;90.60;;;;;;5256130;27;20347;-62
2024/04/25 10:36:52;;;;;;;1.10;1.00;;;9.80;91.30;;;;;;5262454;27;20284;-62
2024/04/25 10:39:17;;;;;;;1.10;1.00;;;9.60;91.20;;;;;;5257397;27;20230;-61
2024/04/25 10:41:43;;;;;;;1.27;1.17;;;9.90;90.60;;;;;;5260610;27;20464;-62
2024/04/25 10:44:09;;;;;;;1.67;1.40;;;10.20;88.90;;;;;;5267886;27;20315;-61
2024/04/25 10:46:35;;;;;;;6.23;1.57;;;10.30;88.90;;;;;;5258517;27;20236;-65
2024/04/25 10:49:03;;;;;;;1.17;1.00;;;10.10;87.30;;;;;;5252775;27;20899;-65
2024/04/25 10:51:28;;;;;;;1.00;0.90;;;10.10;87.10;;;;;;5263188;27;20485;-64
2024/04/25 10:53:55;;;;;;;1.10;1.00;;;10.10;86.40;;;;;;5257626;27;20520;-65
2024/04/25 10:56:22;;;;;;;4.10;1.57;;;10.10;87.40;;;;;;5264475;27;20556;-64
2024/04/25 10:58:57;;;;;;;1.10;1.00;;;10.00;86.70;;;;;;5261583;27;20559;-64
2024/04/25 11:01:27;;;;;;;4.20;1.40;;;10.30;84.70;;;;;;5264560;27;20848;-65
2024/04/25 11:03:57;;;;;;;1.10;1.00;;;10.40;85.30;;;;;;5262704;27;20557;-64
2024/04/25 11:06:24;;;;;;;0.80;0.80;;;10.60;85.70;;;;;;5264437;27;20556;-64
2024/04/25 11:08:50;;;;;;;1.73;1.63;;;11.10;85.90;;;;;;5281124;27;20469;-65
2024/04/25 11:11:16;;;;;;;3.97;1.70;;;11.40;83.50;;;;;;5263078;27;20541;-65
2024/04/25 11:13:42;;;;;;;1.13;1.00;;;11.20;84.30;;;;;;5262895;27;20458;-66
2024/04/25 11:16:07;;;;;;;1.30;1.20;;;10.90;83.60;;;;;;5265251;27;20801;-64
2024/04/25 11:18:34;;;;;;;1.10;1.00;;;10.60;84.50;;;;;;5255623;27;20276;-66
2024/04/25 11:21:04;;;;;;;1.00;0.90;;;10.60;84.40;;;;;;5248740;27;20237;-64
2024/04/25 11:23:30;;;;;;;3.90;1.00;;;10.50;84.00;;;;;;5248648;27;20600;-65
2024/04/25 11:25:59;;;;;;;1.27;1.23;;;10.10;85.50;;;;;;5254795;27;20539;-65
2024/04/25 11:28:25;;;;;;;1.03;0.93;;;9.90;86.30;;;;;;5264174;27;20516;-64
2024/04/25 11:30:50;;;;;;;5.13;1.83;;;9.70;86.20;;;;;;5364649;21;20496;-86
2024/04/25 11:33:24;;;;;;;1.37;1.37;;;9.70;88.30;;;;;;5372406;26;20304;-85
2024/04/25 11:35:50;;;;;;;8.23;2.10;;;9.90;88.90;;;;;;5376115;26;20234;-85
2024/04/25 11:38:16;;;;;;;1.00;0.90;;;9.90;88.70;;;;;;5375670;26;20464;-85
2024/04/25 11:40:43;;;;;;;1.30;1.20;;;9.80;88.20;;;;;;5338097;26;21098;-85
2024/04/25 11:43:14;;;;;;;1.10;1.00;;;9.80;89.10;;;;;;5342618;26;20235;-85
2024/04/25 11:45:44;;;;;;;2.80;2.10;;;9.90;89.40;;;;;;5340637;26;20473;-85
2024/04/25 11:48:10;;;;;;;1.10;1.00;;;9.90;90.20;;;;;;5338985;26;20524;-85
2024/04/25 11:50:37;;;;;;;1.73;1.00;;;9.90;90.00;;;;;;5342519;26;20469;-85
2024/04/25 11:53:06;;;;;;;4.40;1.30;;;10.30;90.70;;;;;;5340573;26;20537;-84
2024/04/25 11:55:32;;;;;;;1.37;1.13;;;10.80;88.60;;;;;;5342542;26;20462;-84
2024/04/25 11:57:58;;;;;;;1.00;0.90;;;11.30;86.90;;;;;;5338715;26;20549;-85
2024/04/25 12:00:23;;;;;;;1.00;0.90;;;11.60;86.50;;;;;;5346386;26;20247;-84
2024/04/25 12:02:49;;;;;;;1.63;1.53;;;11.60;83.50;;;;;;5342059;26;20570;-82
2024/04/25 12:05:15;;;;;;;0.90;0.80;;;11.50;83.50;;;;;;5342185;26;20243;-86
2024/04/25 12:07:42;;;;;;;1.23;1.13;;;11.50;84.00;;;;;;5340681;26;20347;-86
2024/04/25 12:10:07;;;;;;;1.43;1.33;;;11.50;83.50;;;;;;5340180;26;20537;-85
2024/04/25 12:12:33;;;;;;;1.33;1.23;;;11.20;82.90;;;;;;5341610;26;20987;-84
2024/04/25 12:14:59;;;;;;;1.00;0.90;;;10.90;83.90;;;;;;5341057;26;20239;-83
2024/04/25 12:17:26;;;;;;;1.60;1.50;;;10.90;84.60;;;;;;5339868;26;20262;-84
2024/04/25 12:19:51;;;;;;;1.10;1.00;;;11.20;83.20;;;;;;5346796;26;20473;-85
2024/04/25 12:22:17;;;;;;;2.07;1.53;;;10.90;82.30;;;;;;5341140;26;20545;-85
2024/04/25 12:24:43;;;;;;;0.80;0.77;;;11.00;84.00;;;;;;5340171;26;20243;-85
2024/04/25 12:27:08;;;;;;;1.10;1.00;;;11.50;82.60;;;;;;5342236;26;20238;-84
2024/04/25 12:29:34;;;;;;;1.63;1.43;;;11.80;83.40;;;;;;5330282;26;20599;-84
2024/04/25 12:31:59;;;;;;;1.10;1.10;;;11.50;82.80;;;;;;5337581;26;20618;-85
2024/04/25 12:34:26;;;;;;;2.10;1.40;;;11.30;84.10;;;;;;5341352;26;20235;-84
2024/04/25 12:36:51;;;;;;;1.27;1.17;;;11.30;85.30;;;;;;5338447;26;20239;-85
2024/04/25 12:39:17;;;;;;;1.47;1.37;;;11.70;84.40;;;;;;5337931;26;20529;-85
2024/04/25 12:41:42;;;;;;;2.93;2.23;;;12.20;83.00;;;;;;5351697;26;20234;-86
2024/04/25 12:44:08;;;;;;;1.20;1.10;;;12.50;84.00;;;;;;5339575;26;20230;-85
2024/04/25 12:46:34;;;;;;;2.83;1.43;;;12.70;82.70;;;;;;5342598;26;20333;-85
2024/04/25 12:49:00;;;;;;;1.57;1.10;;;12.90;83.20;;;;;;5339680;26;20457;-85
2024/04/25 12:51:25;;;;;;;1.33;1.23;;;13.10;81.90;;;;;;5339706;26;20808;-85
2024/04/25 12:53:51;;;;;;;1.30;1.13;;;12.90;81.00;;;;;;5340039;26;20317;-84
2024/04/25 12:56:17;;;;;;;1.00;0.90;;;13.10;82.20;;;;;;5341793;26;20235;-85
2024/04/25 12:58:42;;;;;;;1.53;1.47;;;12.80;80.20;;;;;;5339248;26;20340;-84
2024/04/25 13:01:08;;;;;;;1.20;1.10;;;12.60;80.70;;;;;;5340613;26;20340;-85
2024/04/25 13:03:33;;;;;;;1.10;1.00;;;12.00;78.90;;;;;;5341301;26;20239;-85
2024/04/25 13:05:59;;;;;;;18.77;1.53;;;12.40;82.30;;;;;;5343710;26;20886;-85
2024/04/25 13:08:25;;;;;;;1.10;1.00;;;13.20;81.90;;;;;;5340478;26;20243;-84
2024/04/25 13:10:50;;;;;;;1.03;1.00;;;13.50;78.60;;;;;;5347212;26;20227;-85
2024/04/25 13:13:18;;;;;;;1.30;1.20;;;13.20;79.30;;;;;;5341056;26;20265;-83
2024/04/25 13:15:44;;;;;;;3.90;1.83;;;13.20;78.90;;;;;;5344923;26;20231;-84
2024/04/25 13:18:09;;;;;;;0.90;0.80;;;13.20;79.40;;;;;;5337321;26;20590;-85
2024/04/25 13:20:35;;;;;;;2.40;1.10;;;12.60;79.40;;;;;;5343054;26;20603;-85
2024/04/25 13:23:00;;;;;;;1.00;0.90;;;12.60;80.40;;;;;;5344818;26;20563;-85
2024/04/25 13:25:25;;;;;;;1.00;0.90;;;12.50;79.90;;;;;;5342494;26;20223;-84
2024/04/25 13:27:51;;;;;;;1.27;1.17;;;12.20;80.50;;;;;;5340896;26;20235;-85
2024/04/25 13:30:16;;;;;;;1.00;0.90;;;11.90;81.80;;;;;;5342289;26;20243;-85
2024/04/25 13:32:42;;;;;;;1.43;1.23;;;11.90;82.90;;;;;;5342398;26;20805;-84
2024/04/25 13:35:07;;;;;;;1.10;1.03;;;12.00;82.80;;;;;;5342597;26;20239;-85
2024/04/25 13:37:33;;;;;;;1.10;1.00;;;12.20;82.30;;;;;;5347823;26;20584;-86
2024/04/25 13:39:58;;;;;;;1.00;0.90;;;12.30;82.30;;;;;;5334994;26;20261;-85
2024/04/25 13:42:24;;;;;;;0.83;0.80;;;12.20;83.00;;;;;;5338734;26;20285;-84
2024/04/25 13:44:49;;;;;;;1.00;0.90;;;12.20;83.70;;;;;;5342332;26;20278;-84
2024/04/25 13:47:15;;;;;;;1.00;0.90;;;11.60;84.80;;;;;;5343877;26;20293;-85
2024/04/25 13:49:41;;;;;;;2.80;1.10;;;11.20;86.10;;;;;;5338137;26;20307;-85
2024/04/25 13:52:08;;;;;;;1.00;0.90;;;11.30;87.70;;;;;;5307636;26;20247;-85
2024/04/25 13:54:33;;;;;;;1.40;1.30;;;11.60;87.30;;;;;;5343707;26;20550;-84
2024/04/25 13:56:59;;;;;;;1.03;1.00;;;12.20;88.40;;;;;;5344252;26;20277;-85
2024/04/25 13:59:24;;;;;;;1.33;1.13;;;12.40;87.80;;;;;;5338557;26;20250;-84
2024/04/25 14:01:50;;;;;;;1.13;1.03;;;12.50;88.30;;;;;;5343595;26;20798;-84
2024/04/25 14:04:15;;;;;;;1.17;1.07;;;13.10;86.80;;;;;;5342598;26;20262;-85
2024/04/25 14:06:43;;;;;;;1.00;0.90;;;13.40;84.60;;;;;;5344940;26;20227;-85
2024/04/25 14:09:08;;;;;;;1.17;0.90;;;13.70;84.10;;;;;;5339960;26;20757;-86
2024/04/25 14:11:34;;;;;;;0.70;0.70;;;14.10;83.70;;;;;;5342075;26;20545;-85
2024/04/25 14:14:04;;;;;;;0.83;0.77;;;14.30;82.40;;;;;;5341636;26;21182;-85
2024/04/25 14:16:32;;;;;;;1.03;0.93;;;13.70;82.50;;;;;;5343609;26;20616;-85
2024/04/25 14:18:58;;;;;;;1.07;0.97;;;13.30;83.80;;;;;;5340056;26;20546;-84
2024/04/25 14:21:23;;;;;;;2.13;1.00;;;13.50;83.90;;;;;;5341882;26;20871;-85
2024/04/25 14:23:49;;;;;;;1.23;1.13;;;13.10;83.70;;;;;;5341010;26;20289;-85
2024/04/25 14:28:58;;;;;;;1.73;1.40;;;12.60;85.20;;;;;;5333838;26;20278;-84
2024/04/25 14:31:24;;;;;;;1.17;1.00;;;12.10;87.50;;;;;;5343194;26;20537;-86
2024/04/25 14:33:50;;;;;;;3.00;1.30;;;11.70;88.50;;;;;;5341927;26;20246;-84
2024/04/25 14:36:16;;;;;;;1.33;1.23;;;11.50;88.10;;;;;;5344281;26;20273;-79
2024/04/25 14:38:42;;;;;;;1.13;1.03;;;11.70;88.80;;;;;;5340707;26;20239;-83
2024/04/25 14:41:08;;;;;;;1.30;1.20;;;12.10;87.60;;;;;;5340935;26;20515;-85
2024/04/25 14:43:33;;;;;;;1.90;1.03;;;13.00;84.60;;;;;;5340269;26;20528;-85
2024/04/25 14:45:59;;;;;;;1.07;0.90;;;13.50;82.60;;;;;;5335780;26;20267;-84
2024/04/25 14:48:28;;;;;;;0.90;0.80;;;13.70;81.70;;;;;;5337910;26;20235;-85
2024/04/25 14:50:55;;;;;;;0.90;0.80;;;13.90;80.90;;;;;;5342616;26;20462;-85
2024/04/25 14:53:22;;;;;;;1.00;0.90;;;13.90;78.10;;;;;;5342721;26;20466;-84
2024/04/25 14:55:47;;;;;;;0.70;0.70;;;13.60;77.30;;;;;;5341389;26;20931;-83
2024/04/25 14:58:13;;;;;;;1.20;1.00;;;13.40;78.00;;;;;;5332764;26;20477;-85
2024/04/25 15:00:39;;;;;;;0.97;0.87;;;13.30;77.40;;;;;;5338649;26;20231;-85
2024/04/25 15:03:06;;;;;;;0.90;0.80;;;13.00;79.10;;;;;;5340102;26;20518;-85
2024/04/25 15:05:32;;;;;;;1.17;1.07;;;12.80;79.90;;;;;;5340343;26;20243;-85
2024/04/25 15:07:58;;;;;;;1.00;0.90;;;12.40;80.30;;;;;;5338254;26;20477;-84
2024/04/25 15:10:23;;;;;;;1.00;0.90;;;12.50;81.60;;;;;;5341617;26;20470;-84
2024/04/25 15:12:48;;;;;;;0.90;0.80;;;12.50;80.90;;;;;;5341724;26;20274;-85
2024/04/25 15:15:14;;;;;;;0.90;0.80;;;12.20;81.60;;;;;;5341942;26;20332;-85
2024/04/25 15:17:41;;;;;;;0.90;0.80;;;12.00;82.60;;;;;;5348700;26;20273;-84
2024/04/25 15:20:07;;;;;;;0.90;0.80;;;11.90;83.40;;;;;;5340988;26;20247;-85
2024/04/25 15:22:33;;;;;;;1.63;1.10;;;11.90;84.60;;;;;;5342404;26;20574;-85
2024/04/25 15:24:59;;;;;;;1.00;0.90;;;11.40;86.70;;;;;;5340640;26;20872;-85
2024/04/25 15:27:24;;;;;;;0.90;0.80;;;11.10;88.40;;;;;;5341046;26;20506;-83
2024/04/25 15:29:50;;;;;;;1.00;0.90;;;10.70;89.20;;;;;;5340323;26;20314;-85
2024/04/25 15:32:16;;;;;;;0.70;0.70;;;10.40;89.90;;;;;;5342404;26;20231;-85
2024/04/25 15:34:42;;;;;;;1.20;1.10;;;10.40;90.90;;;;;;5341714;26;20470;-84
2024/04/25 15:37:08;;;;;;;0.80;0.80;;;10.50;91.60;;;;;;5340563;26;20473;-85
2024/04/25 15:39:34;;;;;;;1.10;1.00;;;10.80;91.80;;;;;;5338688;26;20674;-84
2024/04/25 15:41:59;;;;;;;1.73;1.37;;;11.10;91.20;;;;;;5335220;26;20263;-85
2024/04/25 15:44:25;;;;;;;1.10;1.00;;;11.20;90.70;;;;;;5339130;26;20266;-84
2024/04/25 15:46:50;;;;;;;0.90;0.80;;;11.40;89.90;;;;;;5342514;26;20219;-84
2024/04/25 15:49:15;;;;;;;1.10;1.00;;;11.40;89.30;;;;;;5339839;26;20251;-84
2024/04/25 15:51:41;;;;;;;1.00;0.90;;;11.10;90.30;;;;;;5340472;26;20350;-85
2024/04/25 15:54:06;;;;;;;0.70;0.70;;;10.70;90.60;;;;;;5341741;26;20227;-85
2024/04/25 15:56:32;;;;;;;0.97;0.87;;;10.70;91.90;;;;;;5342122;26;20696;-84
2024/04/25 15:58:58;;;;;;;1.10;1.00;;;11.00;91.10;;;;;;5338884;26;20231;-83
2024/04/25 16:01:24;;;;;;;1.83;1.20;;;11.10;91.00;;;;;;5340127;26;20231;-85
2024/04/25 16:03:50;;;;;;;2.40;1.43;;;10.90;91.40;;;;;;5342180;26;20477;-85
2024/04/25 16:06:16;;;;;;;0.90;0.80;;;10.80;92.00;;;;;;5340518;26;20235;-84
2024/04/25 16:08:43;;;;;;;0.90;0.80;;;10.60;92.50;;;;;;5327812;26;20576;-84
2024/04/25 16:11:09;;;;;;;0.90;0.80;;;10.40;93.80;;;;;;5340583;26;20533;-84
2024/04/25 16:13:34;;;;;;;1.00;0.90;;;10.40;94.60;;;;;;5339975;26;20481;-84
2024/04/25 16:16:00;;;;;;;1.50;1.40;;;10.60;95.40;;;;;;5340968;26;20235;-83
2024/04/25 16:18:27;;;;;;;2.13;1.97;;;10.70;94.00;;;;;;5340632;26;20273;-84
2024/04/25 16:20:52;;;;;;;0.90;0.80;;;11.20;93.10;;;;;;5338923;26;20276;-85
2024/04/25 16:23:18;;;;;;;0.83;0.77;;;11.40;91.70;;;;;;5339373;26;20477;-84
2024/04/25 16:25:43;;;;;;;0.80;0.70;;;12.00;90.80;;;;;;5337080;26;20234;-85
2024/04/25 16:28:09;;;;;;;1.30;1.20;;;12.70;89.30;;;;;;5338150;26;20328;-84
2024/04/25 16:30:34;;;;;;;1.10;1.00;;;13.40;87.60;;;;;;5351936;26;20239;-85
2024/04/25 16:33:00;;;;;;;2.70;1.10;;;14.10;85.40;;;;;;5349226;26;20498;-85
2024/04/25 16:35:25;;;;;;;0.90;0.90;;;14.20;84.20;;;;;;5346751;26;20231;-84
2024/04/25 16:37:52;;;;;;;1.07;0.83;;;14.70;84.30;;;;;;5346811;26;20277;-85
2024/04/25 16:40:18;;;;;;;0.93;0.83;;;15.00;83.80;;;;;;5344361;26;20340;-83
2024/04/25 16:42:43;;;;;;;0.90;0.80;;;14.80;83.40;;;;;;5347041;26;20473;-85
2024/04/25 16:45:09;;;;;;;1.03;0.97;;;15.00;83.20;;;;;;5345405;26;20235;-84
2024/04/25 16:47:34;;;;;;;0.97;0.87;;;15.30;82.50;;;;;;5344621;26;20789;-84
2024/04/25 16:50:00;;;;;;;0.90;0.80;;;15.20;82.10;;;;;;5348454;26;20255;-85